createdAt,value
2022-12-15T00:00:15.263Z,21.60
2022-12-15T00:05:35.760Z,21.60
2022-12-15T00:10:56.431Z,21.50
2022-12-15T00:16:17.822Z,21.50
2022-12-15T00:21:38.156Z,21.60
2022-12-15T00:26:58.226Z,21.50
2022-12-15T00:32:20.138Z,21.60
2022-12-15T00:37:40.085Z,21.40
2022-12-15T00:42:42.895Z,21.50
2022-12-15T00:47:46.868Z,21.40
2022-12-15T00:53:07.173Z,21.50
2022-12-15T00:58:27.228Z,21.50
2022-12-15T01:03:48.442Z,21.50
2022-12-15T01:09:09.117Z,21.50
2022-12-15T01:14:29.346Z,21.50
2022-12-15T01:19:50.657Z,21.40
2022-12-15T01:24:53.331Z,21.30
2022-12-15T01:29:56.010Z,21.40
2022-12-15T01:35:00.020Z,21.40
2022-12-15T01:40:20.362Z,21.40
2022-12-15T01:45:40.748Z,21.40
2022-12-15T01:50:46.189Z,21.40
2022-12-15T01:55:49.872Z,21.30
2022-12-15T02:00:52.752Z,21.30
2022-12-15T02:05:57.114Z,21.30
2022-12-15T02:11:13.917Z,21.30
2022-12-15T02:16:20.343Z,21.20
2022-12-15T02:21:28.838Z,21.30
2022-12-15T02:26:47.250Z,21.40
2022-12-15T02:31:53.969Z,21.30
2022-12-15T02:36:59.033Z,21.20
2022-12-15T02:42:01.748Z,21.30
2022-12-15T02:47:14.962Z,21.20
2022-12-15T02:52:26.854Z,21.30
2022-12-15T02:57:39.015Z,21.10
2022-12-15T03:02:46.680Z,21.20
2022-12-15T03:07:50.560Z,21.20
2022-12-15T03:12:55.406Z,21.20
2022-12-15T03:17:59.534Z,21.20
2022-12-15T03:23:02.285Z,21.20
2022-12-15T03:28:05.011Z,21.10
2022-12-15T03:33:09.499Z,21.20
2022-12-15T03:38:12.213Z,21.20
2022-12-15T03:43:15.310Z,21.10
2022-12-15T03:48:22.736Z,21.20
2022-12-15T03:53:25.466Z,21.10
2022-12-15T03:58:28.099Z,21.20
2022-12-15T04:03:32.548Z,21.10
2022-12-15T04:08:35.526Z,21.00
2022-12-15T04:13:38.343Z,21.10
2022-12-15T04:18:42.550Z,21.10
2022-12-15T04:24:03.030Z,21.00
2022-12-15T04:29:23.085Z,21.10
2022-12-15T04:34:44.461Z,21.10
2022-12-15T04:40:06.035Z,21.10
2022-12-15T04:45:27.046Z,21.10
2022-12-15T04:50:48.339Z,21.10
2022-12-15T04:56:12.539Z,21.10
2022-12-15T05:01:37.131Z,21.00
2022-12-15T05:06:58.912Z,21.00
2022-12-15T05:12:19.018Z,21.10
2022-12-15T05:17:41.564Z,21.10
2022-12-15T05:23:03.412Z,21.10
2022-12-15T05:28:26.450Z,21.10
2022-12-15T05:33:29.485Z,21.10
2022-12-15T05:38:33.758Z,21.00
2022-12-15T05:43:36.413Z,21.00
2022-12-15T05:48:39.061Z,21.10
2022-12-15T05:53:43.046Z,21.10
2022-12-15T05:58:45.887Z,21.00
2022-12-15T06:03:49.026Z,21.00
2022-12-15T06:08:53.048Z,21.00
2022-12-15T06:13:58.095Z,21.10
2022-12-15T06:19:01.849Z,21.30
2022-12-15T06:24:07.724Z,21.30
2022-12-15T06:29:12.398Z,21.40
2022-12-15T06:34:16.190Z,21.50
2022-12-15T06:39:20.562Z,21.50
2022-12-15T06:44:23.277Z,21.50
2022-12-15T06:49:25.959Z,21.60
2022-12-15T06:54:29.946Z,21.60
2022-12-15T06:59:32.890Z,21.70
2022-12-15T07:04:35.571Z,21.60
2022-12-15T07:09:39.552Z,21.70
2022-12-15T07:14:42.296Z,21.80
2022-12-15T07:19:44.922Z,21.90
2022-12-15T07:24:49.054Z,21.80
2022-12-15T07:29:52.377Z,21.90
2022-12-15T07:34:55.077Z,21.90
2022-12-15T07:39:59.050Z,21.90
2022-12-15T07:45:01.752Z,21.80
2022-12-15T07:50:04.962Z,21.90
2022-12-15T07:55:09.486Z,21.90
2022-12-15T08:00:14.787Z,22.00
2022-12-15T08:05:17.649Z,22.00
2022-12-15T08:10:21.710Z,22.10
2022-12-15T08:15:24.526Z,22.10
2022-12-15T08:20:27.312Z,22.10
2022-12-15T08:25:31.394Z,22.10
2022-12-15T08:30:34.979Z,22.10
2022-12-15T08:35:56.288Z,22.10
2022-12-15T08:41:07.299Z,22.10
2022-12-15T08:46:10.047Z,22.10
2022-12-15T08:51:12.962Z,22.20
2022-12-15T08:56:17.963Z,22.20
2022-12-15T09:01:23.678Z,22.30
2022-12-15T09:06:27.576Z,22.20
2022-12-15T09:11:31.635Z,22.30
2022-12-15T09:16:34.860Z,22.30
2022-12-15T09:21:37.526Z,22.40
2022-12-15T09:26:42.614Z,22.40
2022-12-15T09:31:46.321Z,22.50
2022-12-15T09:36:48.987Z,22.40
2022-12-15T09:41:55.514Z,22.50
2022-12-15T09:47:14.198Z,22.60
2022-12-15T09:52:17.805Z,22.60
2022-12-15T09:57:26.238Z,22.50
2022-12-15T10:02:49.738Z,22.60
2022-12-15T10:07:52.707Z,22.60
2022-12-15T10:13:02.539Z,22.60
2022-12-15T10:18:07.731Z,22.60
2022-12-15T10:23:12.950Z,22.70
2022-12-15T10:28:32.399Z,22.70
2022-12-15T10:33:36.803Z,22.70
2022-12-15T10:38:40.447Z,22.70
2022-12-15T10:43:45.159Z,22.70
2022-12-15T10:48:50.850Z,22.70
2022-12-15T10:53:54.172Z,22.70
2022-12-15T10:58:59.607Z,22.80
2022-12-15T11:04:02.485Z,22.70
2022-12-15T11:09:09.376Z,22.70
2022-12-15T11:14:14.946Z,22.70
2022-12-15T11:19:22.475Z,22.70
2022-12-15T11:24:30.473Z,22.80
2022-12-15T11:29:40.199Z,22.70
2022-12-15T11:34:45.280Z,22.70
2022-12-15T11:39:54.491Z,22.80
2022-12-15T11:45:03.254Z,22.80
2022-12-15T11:50:18.213Z,22.70
2022-12-15T12:00:52.083Z,22.80
2022-12-15T12:06:07.234Z,22.90
2022-12-15T12:11:13.296Z,22.80
2022-12-15T12:16:24.228Z,22.90
2022-12-15T12:21:28.614Z,22.80
2022-12-15T12:26:33.616Z,22.80
2022-12-15T12:31:44.065Z,22.90
2022-12-15T12:36:49.580Z,22.90
2022-12-15T12:41:59.983Z,22.80
2022-12-15T12:47:09.998Z,22.80
2022-12-15T12:52:18.974Z,22.80
2022-12-15T12:57:30.691Z,22.70
2022-12-15T13:02:48.317Z,22.60
2022-12-15T13:07:55.292Z,22.60
2022-12-15T13:12:59.262Z,22.60
2022-12-15T13:18:08.044Z,22.60
2022-12-15T13:23:29.709Z,22.70
2022-12-15T13:28:42.697Z,22.90
2022-12-15T13:33:52.254Z,22.90
2022-12-15T13:38:56.047Z,23.00
2022-12-15T13:43:59.541Z,22.90
2022-12-15T13:49:07.749Z,23.10
2022-12-15T13:54:15.407Z,23.10
2022-12-15T13:59:21.786Z,23.10
2022-12-15T14:04:26.097Z,23.10
2022-12-15T14:09:30.605Z,23.10
2022-12-15T14:14:35.882Z,23.20
2022-12-15T14:19:41.050Z,23.30
2022-12-15T14:24:45.838Z,23.40
2022-12-15T14:30:09.238Z,23.50
2022-12-15T14:35:15.753Z,23.60
2022-12-15T14:40:23.640Z,23.60
2022-12-15T14:45:30.900Z,23.50
2022-12-15T14:50:35.876Z,23.50
2022-12-15T14:55:39.471Z,23.70
2022-12-15T15:00:50.427Z,23.90
2022-12-15T15:03:06.970Z,22.80
2022-12-15T15:05:57.341Z,23.80
2022-12-15T15:11:01.335Z,24.00
2022-12-15T15:16:06.111Z,24.20
2022-12-15T15:21:16.090Z,24.20
2022-12-15T15:26:18.845Z,24.30
2022-12-15T15:31:32.647Z,24.30
2022-12-15T15:36:40.887Z,24.20
2022-12-15T15:41:43.627Z,24.20
2022-12-15T15:46:47.829Z,24.30
2022-12-15T15:51:52.068Z,24.20
2022-12-15T15:56:54.912Z,24.30
2022-12-15T16:01:59.824Z,24.30
2022-12-15T16:07:05.529Z,24.30
2022-12-15T16:12:11.583Z,24.30
2022-12-15T16:17:14.918Z,24.20
2022-12-15T16:22:20.055Z,24.20
2022-12-15T16:27:23.208Z,24.20
2022-12-15T16:32:25.852Z,24.30
2022-12-15T16:37:32.486Z,24.20
2022-12-15T16:42:38.905Z,24.10
2022-12-15T16:47:41.618Z,24.10
2022-12-15T16:52:47.951Z,24.00
2022-12-15T16:57:51.087Z,23.90
2022-12-15T17:02:54.297Z,23.80
2022-12-15T17:07:59.233Z,23.80
2022-12-15T17:13:04.479Z,23.70
2022-12-15T17:18:07.313Z,23.60
2022-12-15T17:23:15.873Z,23.60
2022-12-15T17:28:20.720Z,23.60
2022-12-15T17:33:24.296Z,23.60
2022-12-15T17:38:28.729Z,23.50
2022-12-15T17:43:35.716Z,23.50
2022-12-15T17:48:38.854Z,23.60
2022-12-15T17:53:43.329Z,23.50
2022-12-15T17:58:45.962Z,23.50
2022-12-15T18:03:48.697Z,23.40
2022-12-15T18:08:52.823Z,23.40
2022-12-15T18:13:55.463Z,23.40
2022-12-15T18:18:59.434Z,23.20
2022-12-15T18:24:03.681Z,23.10
2022-12-15T18:29:11.184Z,23.20
2022-12-15T18:34:14.999Z,23.20
2022-12-15T18:39:20.429Z,23.10
2022-12-15T18:44:24.130Z,23.20
2022-12-15T18:49:26.808Z,23.10
2022-12-15T18:54:32.182Z,22.90
2022-12-15T18:59:34.816Z,23.00
2022-12-15T19:04:37.439Z,23.00
2022-12-15T19:09:41.674Z,22.80
2022-12-15T19:14:44.687Z,22.80
2022-12-15T19:20:04.746Z,22.70
2022-12-15T19:25:10.846Z,22.80
2022-12-15T19:30:15.429Z,22.70
2022-12-15T19:35:18.309Z,22.70
2022-12-15T19:40:23.563Z,22.60
2022-12-15T19:45:27.270Z,22.60
2022-12-15T19:50:33.242Z,22.60
2022-12-15T19:55:37.380Z,22.50
2022-12-15T20:00:40.463Z,22.50
2022-12-15T20:05:43.287Z,22.50
2022-12-15T20:10:47.612Z,22.40
2022-12-15T20:15:50.553Z,22.50
2022-12-15T20:20:53.417Z,22.50
2022-12-15T20:25:57.784Z,22.50
2022-12-15T20:31:00.454Z,22.40
2022-12-15T20:36:03.110Z,22.40
2022-12-15T20:41:07.396Z,22.40
2022-12-15T20:46:13.702Z,22.40
2022-12-15T20:51:20.993Z,22.40
2022-12-15T20:56:25.215Z,22.40
2022-12-15T21:01:29.015Z,22.30
2022-12-15T21:06:32.150Z,22.20
2022-12-15T21:11:36.383Z,22.30
2022-12-15T21:16:39.124Z,22.30
2022-12-15T21:21:45.099Z,22.30
2022-12-15T21:26:49.282Z,22.30
2022-12-15T21:31:51.934Z,22.30
2022-12-15T21:36:54.791Z,22.30
2022-12-15T21:42:01.158Z,22.20
2022-12-15T21:47:06.740Z,22.20
2022-12-15T21:52:10.747Z,22.20
2022-12-15T21:57:14.755Z,22.20
2022-12-15T22:02:25.038Z,22.20
2022-12-15T22:07:27.776Z,22.20
2022-12-15T22:12:31.781Z,22.10
2022-12-15T22:17:34.457Z,22.20
2022-12-15T22:22:37.898Z,22.10
2022-12-15T22:27:41.880Z,22.10
2022-12-15T22:32:44.573Z,22.20
2022-12-15T22:37:49.498Z,22.20
2022-12-15T22:42:55.238Z,22.10
2022-12-15T22:47:57.887Z,22.10
2022-12-15T22:53:01.182Z,22.10
2022-12-15T22:58:07.709Z,22.10
2022-12-15T23:03:11.967Z,22.10
2022-12-15T23:08:14.657Z,22.10
2022-12-15T23:13:18.759Z,22.00
2022-12-15T23:18:21.417Z,22.10
2022-12-15T23:23:25.766Z,22.00
2022-12-15T23:28:29.765Z,22.00
2022-12-15T23:33:32.972Z,22.00
2022-12-15T23:38:35.882Z,22.00
2022-12-15T23:43:39.894Z,22.00
2022-12-15T23:48:43.497Z,22.00
2022-12-15T23:53:46.952Z,22.00
2022-12-15T23:58:55.797Z,22.00
